Terminal Aerodrome Forecast
Issued by NWS

Home | Current Version | Previous Version | Text Only | Print | Product List | Glossary Off
Versions: 1 2 3 4 5 6 7 8 9 10 11 12 13 14 15 16 17 18

000
FTUS43 KICT 081700
TAFHUT
TAF
KHUT 081730Z 0818/0918 01012KT P6SM SCT150 BKN250
     FM090100 05005KT P6SM SCT250
     FM091500 16008KT P6SM SKC=

USA.gov is the U.S. government's official web portal to all federal, state and local government web resources and services.